sensor_id;sensor_type;location;lat;lon;timestamp;temperature;humidity
20891;DHT22;10605;52.968;8.844;2023-07-13T00:00:21;15.40;99.90
20891;DHT22;10605;52.968;8.844;2023-07-13T00:02:47;15.30;99.90
20891;DHT22;10605;52.968;8.844;2023-07-13T00:05:13;15.30;99.90
20891;DHT22;10605;52.968;8.844;2023-07-13T00:07:39;15.30;99.90
20891;DHT22;10605;52.968;8.844;2023-07-13T00:10:05;15.30;99.90
20891;DHT22;10605;52.968;8.844;2023-07-13T00:12:35;15.20;99.90
20891;DHT22;10605;52.968;8.844;2023-07-13T00:15:09;15.20;99.90
20891;DHT22;10605;52.968;8.844;2023-07-13T00:17:35;15.20;99.90
20891;DHT22;10605;52.968;8.844;2023-07-13T00:20:01;15.20;99.90
20891;DHT22;10605;52.968;8.844;2023-07-13T00:22:26;15.20;99.90
20891;DHT22;10605;52.968;8.844;2023-07-13T00:24:53;15.20;99.90
20891;DHT22;10605;52.968;8.844;2023-07-13T00:27:21;15.20;99.90
20891;DHT22;10605;52.968;8.844;2023-07-13T00:29:47;15.20;99.90
20891;DHT22;10605;52.968;8.844;2023-07-13T00:32:12;15.10;99.90
20891;DHT22;10605;52.968;8.844;2023-07-13T00:34:38;15.10;99.90
20891;DHT22;10605;52.968;8.844;2023-07-13T00:37:05;15.10;99.90
20891;DHT22;10605;52.968;8.844;2023-07-13T00:39:35;15.10;99.90
20891;DHT22;10605;52.968;8.844;2023-07-13T00:42:01;15.10;99.90
20891;DHT22;10605;52.968;8.844;2023-07-13T00:44:27;15.00;99.90
20891;DHT22;10605;52.968;8.844;2023-07-13T00:46:53;15.00;99.90
20891;DHT22;10605;52.968;8.844;2023-07-13T00:49:23;15.00;99.90
20891;DHT22;10605;52.968;8.844;2023-07-13T00:51:53;15.00;99.90
20891;DHT22;10605;52.968;8.844;2023-07-13T00:54:27;15.00;99.90
20891;DHT22;10605;52.968;8.844;2023-07-13T00:56:57;15.00;99.90
20891;DHT22;10605;52.968;8.844;2023-07-13T00:59:24;15.00;99.90
20891;DHT22;10605;52.968;8.844;2023-07-13T01:01:50;15.00;99.90
20891;DHT22;10605;52.968;8.844;2023-07-13T01:04:17;15.00;99.90
20891;DHT22;10605;52.968;8.844;2023-07-13T01:06:43;15.00;99.90
20891;DHT22;10605;52.968;8.844;2023-07-13T01:09:10;15.00;99.90
20891;DHT22;10605;52.968;8.844;2023-07-13T01:11:36;15.00;99.90
20891;DHT22;10605;52.968;8.844;2023-07-13T01:14:02;15.00;99.90
20891;DHT22;10605;52.968;8.844;2023-07-13T01:16:31;15.00;99.90
20891;DHT22;10605;52.968;8.844;2023-07-13T01:18:57;15.00;99.90
20891;DHT22;10605;52.968;8.844;2023-07-13T01:21:32;15.00;99.90
20891;DHT22;10605;52.968;8.844;2023-07-13T01:23:57;15.00;99.90
20891;DHT22;10605;52.968;8.844;2023-07-13T01:26:23;15.00;99.90
20891;DHT22;10605;52.968;8.844;2023-07-13T01:28:49;14.90;99.90
20891;DHT22;10605;52.968;8.844;2023-07-13T01:31:15;14.90;99.90
20891;DHT22;10605;52.968;8.844;2023-07-13T01:33:41;14.90;99.90
20891;DHT22;10605;52.968;8.844;2023-07-13T01:36:07;14.80;99.90
20891;DHT22;10605;52.968;8.844;2023-07-13T01:38:34;14.80;99.90
20891;DHT22;10605;52.968;8.844;2023-07-13T01:41:00;14.90;99.90
20891;DHT22;10605;52.968;8.844;2023-07-13T01:43:27;14.80;99.90
20891;DHT22;10605;52.968;8.844;2023-07-13T01:45:53;14.90;99.90
20891;DHT22;10605;52.968;8.844;2023-07-13T01:48:19;14.90;99.90
20891;DHT22;10605;52.968;8.844;2023-07-13T01:50:46;14.90;99.90
20891;DHT22;10605;52.968;8.844;2023-07-13T01:53:12;14.80;99.90
20891;DHT22;10605;52.968;8.844;2023-07-13T01:55:37;14.80;99.90
20891;DHT22;10605;52.968;8.844;2023-07-13T01:58:04;14.80;99.90
20891;DHT22;10605;52.968;8.844;2023-07-13T02:00:30;14.80;99.90
20891;DHT22;10605;52.968;8.844;2023-07-13T02:02:56;14.80;99.90
20891;DHT22;10605;52.968;8.844;2023-07-13T02:05:22;14.80;99.90
20891;DHT22;10605;52.968;8.844;2023-07-13T02:07:48;14.70;99.90
20891;DHT22;10605;52.968;8.844;2023-07-13T02:10:14;14.70;99.90
20891;DHT22;10605;52.968;8.844;2023-07-13T02:12:40;14.70;99.90
20891;DHT22;10605;52.968;8.844;2023-07-13T02:15:06;14.70;99.90
20891;DHT22;10605;52.968;8.844;2023-07-13T02:17:33;14.60;99.90
20891;DHT22;10605;52.968;8.844;2023-07-13T02:19:58;14.60;99.90
20891;DHT22;10605;52.968;8.844;2023-07-13T02:22:24;14.60;99.90
20891;DHT22;10605;52.968;8.844;2023-07-13T02:24:50;14.60;99.90
20891;DHT22;10605;52.968;8.844;2023-07-13T02:27:16;14.60;99.90
20891;DHT22;10605;52.968;8.844;2023-07-13T02:29:42;14.60;99.90
20891;DHT22;10605;52.968;8.844;2023-07-13T02:32:08;14.50;99.90
20891;DHT22;10605;52.968;8.844;2023-07-13T02:34:34;14.50;99.90
20891;DHT22;10605;52.968;8.844;2023-07-13T02:36:59;14.50;99.90
20891;DHT22;10605;52.968;8.844;2023-07-13T02:39:25;14.50;99.90
20891;DHT22;10605;52.968;8.844;2023-07-13T02:41:51;14.50;99.90
20891;DHT22;10605;52.968;8.844;2023-07-13T02:44:16;14.40;99.90
20891;DHT22;10605;52.968;8.844;2023-07-13T02:46:42;14.40;99.90
20891;DHT22;10605;52.968;8.844;2023-07-13T02:49:08;14.40;99.90
20891;DHT22;10605;52.968;8.844;2023-07-13T02:51:34;14.40;99.90
20891;DHT22;10605;52.968;8.844;2023-07-13T02:54:01;14.40;99.90
20891;DHT22;10605;52.968;8.844;2023-07-13T02:56:28;14.40;99.90
20891;DHT22;10605;52.968;8.844;2023-07-13T02:58:54;14.40;99.90
20891;DHT22;10605;52.968;8.844;2023-07-13T03:01:21;14.40;99.90
20891;DHT22;10605;52.968;8.844;2023-07-13T03:03:48;14.40;99.90
20891;DHT22;10605;52.968;8.844;2023-07-13T03:06:15;14.40;99.90
20891;DHT22;10605;52.968;8.844;2023-07-13T03:08:41;14.40;99.90
20891;DHT22;10605;52.968;8.844;2023-07-13T03:11:09;14.50;99.90
20891;DHT22;10605;52.968;8.844;2023-07-13T03:13:37;14.50;99.90
20891;DHT22;10605;52.968;8.844;2023-07-13T03:16:03;14.50;99.90
20891;DHT22;10605;52.968;8.844;2023-07-13T03:18:29;14.60;99.90
20891;DHT22;10605;52.968;8.844;2023-07-13T03:20:55;14.60;99.90
20891;DHT22;10605;52.968;8.844;2023-07-13T03:23:21;14.70;99.90
20891;DHT22;10605;52.968;8.844;2023-07-13T03:25:48;14.70;99.90
20891;DHT22;10605;52.968;8.844;2023-07-13T03:28:14;14.70;99.90
20891;DHT22;10605;52.968;8.844;2023-07-13T03:30:40;14.70;99.90
20891;DHT22;10605;52.968;8.844;2023-07-13T03:33:06;14.80;99.90
20891;DHT22;10605;52.968;8.844;2023-07-13T03:35:32;14.80;99.90
20891;DHT22;10605;52.968;8.844;2023-07-13T03:37:59;14.90;99.90
20891;DHT22;10605;52.968;8.844;2023-07-13T03:40:26;14.90;99.90
20891;DHT22;10605;52.968;8.844;2023-07-13T03:42:52;15.00;99.90
20891;DHT22;10605;52.968;8.844;2023-07-13T03:45:18;15.10;99.90
20891;DHT22;10605;52.968;8.844;2023-07-13T03:47:44;15.10;99.90
20891;DHT22;10605;52.968;8.844;2023-07-13T03:50:10;15.20;99.90
20891;DHT22;10605;52.968;8.844;2023-07-13T03:52:35;15.30;99.90
20891;DHT22;10605;52.968;8.844;2023-07-13T03:55:01;15.50;99.90
20891;DHT22;10605;52.968;8.844;2023-07-13T03:57:27;15.70;99.90
20891;DHT22;10605;52.968;8.844;2023-07-13T03:59:52;15.70;99.90
20891;DHT22;10605;52.968;8.844;2023-07-13T04:02:18;15.60;99.90
20891;DHT22;10605;52.968;8.844;2023-07-13T04:04:44;15.50;99.90
20891;DHT22;10605;52.968;8.844;2023-07-13T04:07:09;15.50;99.90
20891;DHT22;10605;52.968;8.844;2023-07-13T04:09:35;15.50;99.90
20891;DHT22;10605;52.968;8.844;2023-07-13T04:12:01;15.50;99.90
20891;DHT22;10605;52.968;8.844;2023-07-13T04:14:27;15.50;99.90
20891;DHT22;10605;52.968;8.844;2023-07-13T04:16:53;15.50;99.90
20891;DHT22;10605;52.968;8.844;2023-07-13T04:19:20;15.60;99.90
20891;DHT22;10605;52.968;8.844;2023-07-13T04:21:46;15.70;99.90
20891;DHT22;10605;52.968;8.844;2023-07-13T04:24:12;15.80;99.90
20891;DHT22;10605;52.968;8.844;2023-07-13T04:26:38;15.80;99.90
20891;DHT22;10605;52.968;8.844;2023-07-13T04:29:06;15.90;99.90
20891;DHT22;10605;52.968;8.844;2023-07-13T04:31:32;16.00;99.90
20891;DHT22;10605;52.968;8.844;2023-07-13T04:33:58;16.00;99.90
20891;DHT22;10605;52.968;8.844;2023-07-13T04:36:24;16.00;99.90
20891;DHT22;10605;52.968;8.844;2023-07-13T04:38:52;16.10;99.90
20891;DHT22;10605;52.968;8.844;2023-07-13T04:41:19;16.20;99.90
20891;DHT22;10605;52.968;8.844;2023-07-13T04:43:45;16.30;99.90
20891;DHT22;10605;52.968;8.844;2023-07-13T04:46:14;16.40;99.90
20891;DHT22;10605;52.968;8.844;2023-07-13T04:48:40;16.50;99.90
20891;DHT22;10605;52.968;8.844;2023-07-13T04:51:06;16.70;99.90
20891;DHT22;10605;52.968;8.844;2023-07-13T04:53:32;16.80;99.90
20891;DHT22;10605;52.968;8.844;2023-07-13T04:56:00;16.90;99.90
20891;DHT22;10605;52.968;8.844;2023-07-13T04:58:26;17.00;99.90
20891;DHT22;10605;52.968;8.844;2023-07-13T05:00:53;17.10;99.90
20891;DHT22;10605;52.968;8.844;2023-07-13T05:03:24;17.10;99.90
20891;DHT22;10605;52.968;8.844;2023-07-13T05:06:02;17.30;99.90
20891;DHT22;10605;52.968;8.844;2023-07-13T05:08:28;17.40;99.90
20891;DHT22;10605;52.968;8.844;2023-07-13T05:10:54;17.50;99.90
20891;DHT22;10605;52.968;8.844;2023-07-13T05:13:20;17.50;99.90
20891;DHT22;10605;52.968;8.844;2023-07-13T05:15:48;17.60;99.90
20891;DHT22;10605;52.968;8.844;2023-07-13T05:18:20;17.70;99.90
20891;DHT22;10605;52.968;8.844;2023-07-13T05:20:45;17.80;99.90
20891;DHT22;10605;52.968;8.844;2023-07-13T05:23:11;17.90;99.90
20891;DHT22;10605;52.968;8.844;2023-07-13T05:25:37;18.00;99.90
20891;DHT22;10605;52.968;8.844;2023-07-13T05:28:02;18.20;99.90
20891;DHT22;10605;52.968;8.844;2023-07-13T05:30:28;18.30;99.90
20891;DHT22;10605;52.968;8.844;2023-07-13T05:32:54;18.30;99.90
20891;DHT22;10605;52.968;8.844;2023-07-13T05:35:19;18.40;99.90
20891;DHT22;10605;52.968;8.844;2023-07-13T05:37:45;18.60;99.90
20891;DHT22;10605;52.968;8.844;2023-07-13T05:40:11;18.90;99.90
20891;DHT22;10605;52.968;8.844;2023-07-13T05:42:36;18.70;99.90
20891;DHT22;10605;52.968;8.844;2023-07-13T05:45:02;18.70;99.90
20891;DHT22;10605;52.968;8.844;2023-07-13T05:47:28;18.80;99.90
20891;DHT22;10605;52.968;8.844;2023-07-13T05:49:53;19.20;99.90
20891;DHT22;10605;52.968;8.844;2023-07-13T05:52:19;19.50;99.90
20891;DHT22;10605;52.968;8.844;2023-07-13T05:54:45;20.80;99.90
20891;DHT22;10605;52.968;8.844;2023-07-13T05:57:10;21.60;99.90
20891;DHT22;10605;52.968;8.844;2023-07-13T05:59:36;22.00;99.90
20891;DHT22;10605;52.968;8.844;2023-07-13T06:02:02;22.50;99.90
20891;DHT22;10605;52.968;8.844;2023-07-13T06:04:28;22.60;99.90
20891;DHT22;10605;52.968;8.844;2023-07-13T06:06:53;21.60;99.90
20891;DHT22;10605;52.968;8.844;2023-07-13T06:09:19;21.90;99.90
20891;DHT22;10605;52.968;8.844;2023-07-13T06:11:52;22.10;99.90
20891;DHT22;10605;52.968;8.844;2023-07-13T06:14:19;22.10;99.90
20891;DHT22;10605;52.968;8.844;2023-07-13T06:16:44;22.80;99.90
20891;DHT22;10605;52.968;8.844;2023-07-13T06:19:10;23.30;99.90
20891;DHT22;10605;52.968;8.844;2023-07-13T06:21:36;23.50;99.90
20891;DHT22;10605;52.968;8.844;2023-07-13T06:24:02;23.70;99.90
20891;DHT22;10605;52.968;8.844;2023-07-13T06:26:28;24.00;99.90
20891;DHT22;10605;52.968;8.844;2023-07-13T06:28:53;25.00;99.90
20891;DHT22;10605;52.968;8.844;2023-07-13T06:31:19;25.40;99.90
20891;DHT22;10605;52.968;8.844;2023-07-13T06:33:45;24.40;99.90
20891;DHT22;10605;52.968;8.844;2023-07-13T06:36:10;23.20;99.90
20891;DHT22;10605;52.968;8.844;2023-07-13T06:38:36;23.00;99.90
20891;DHT22;10605;52.968;8.844;2023-07-13T06:41:04;23.70;99.90
20891;DHT22;10605;52.968;8.844;2023-07-13T06:43:29;24.30;99.90
20891;DHT22;10605;52.968;8.844;2023-07-13T06:45:57;25.00;99.90
20891;DHT22;10605;52.968;8.844;2023-07-13T06:48:23;25.50;99.90
20891;DHT22;10605;52.968;8.844;2023-07-13T06:50:49;25.90;99.90
20891;DHT22;10605;52.968;8.844;2023-07-13T06:53:17;26.30;99.90
20891;DHT22;10605;52.968;8.844;2023-07-13T06:55:44;26.10;99.90
20891;DHT22;10605;52.968;8.844;2023-07-13T06:58:10;26.30;99.90
20891;DHT22;10605;52.968;8.844;2023-07-13T07:00:36;26.40;99.90
20891;DHT22;10605;52.968;8.844;2023-07-13T07:03:02;26.80;99.90
20891;DHT22;10605;52.968;8.844;2023-07-13T07:05:28;26.70;99.90
20891;DHT22;10605;52.968;8.844;2023-07-13T07:07:55;26.90;99.90
20891;DHT22;10605;52.968;8.844;2023-07-13T07:10:21;27.10;99.90
20891;DHT22;10605;52.968;8.844;2023-07-13T07:12:47;27.40;99.90
20891;DHT22;10605;52.968;8.844;2023-07-13T07:15:13;27.40;99.90
20891;DHT22;10605;52.968;8.844;2023-07-13T07:17:39;27.60;99.90
20891;DHT22;10605;52.968;8.844;2023-07-13T07:20:05;27.60;99.90
20891;DHT22;10605;52.968;8.844;2023-07-13T07:22:31;27.70;99.90
20891;DHT22;10605;52.968;8.844;2023-07-13T07:24:57;27.90;99.90
20891;DHT22;10605;52.968;8.844;2023-07-13T07:27:23;27.80;99.90
20891;DHT22;10605;52.968;8.844;2023-07-13T07:29:49;28.00;99.90
20891;DHT22;10605;52.968;8.844;2023-07-13T07:32:15;28.00;99.90
20891;DHT22;10605;52.968;8.844;2023-07-13T07:34:41;28.20;99.90
20891;DHT22;10605;52.968;8.844;2023-07-13T07:37:06;28.20;99.90
20891;DHT22;10605;52.968;8.844;2023-07-13T07:39:35;28.40;99.90
20891;DHT22;10605;52.968;8.844;2023-07-13T07:42:00;27.40;99.90
20891;DHT22;10605;52.968;8.844;2023-07-13T07:44:26;25.80;99.90
20891;DHT22;10605;52.968;8.844;2023-07-13T07:46:52;26.30;99.90
20891;DHT22;10605;52.968;8.844;2023-07-13T07:49:18;26.70;99.90
20891;DHT22;10605;52.968;8.844;2023-07-13T07:51:43;26.70;99.90
20891;DHT22;10605;52.968;8.844;2023-07-13T07:54:09;28.30;99.90
20891;DHT22;10605;52.968;8.844;2023-07-13T07:56:35;27.30;99.90
20891;DHT22;10605;52.968;8.844;2023-07-13T07:59:00;27.50;99.90
20891;DHT22;10605;52.968;8.844;2023-07-13T08:01:26;28.10;99.90
20891;DHT22;10605;52.968;8.844;2023-07-13T08:03:52;26.60;99.90
20891;DHT22;10605;52.968;8.844;2023-07-13T08:06:17;27.20;99.90
20891;DHT22;10605;52.968;8.844;2023-07-13T08:08:45;27.90;99.90
20891;DHT22;10605;52.968;8.844;2023-07-13T08:11:11;28.50;99.90
20891;DHT22;10605;52.968;8.844;2023-07-13T08:13:37;29.10;99.90
20891;DHT22;10605;52.968;8.844;2023-07-13T08:16:04;28.00;99.90
20891;DHT22;10605;52.968;8.844;2023-07-13T08:18:30;27.40;99.90
20891;DHT22;10605;52.968;8.844;2023-07-13T08:20:56;28.60;99.90
20891;DHT22;10605;52.968;8.844;2023-07-13T08:23:22;30.00;99.90
20891;DHT22;10605;52.968;8.844;2023-07-13T08:25:54;28.40;99.90
20891;DHT22;10605;52.968;8.844;2023-07-13T08:28:24;26.70;99.90
20891;DHT22;10605;52.968;8.844;2023-07-13T08:30:50;28.40;99.90
20891;DHT22;10605;52.968;8.844;2023-07-13T08:33:17;29.80;99.90
20891;DHT22;10605;52.968;8.844;2023-07-13T08:35:46;29.60;99.20
20891;DHT22;10605;52.968;8.844;2023-07-13T08:38:12;30.50;98.10
20891;DHT22;10605;52.968;8.844;2023-07-13T08:40:39;28.70;99.90
20891;DHT22;10605;52.968;8.844;2023-07-13T08:43:12;28.10;99.90
20891;DHT22;10605;52.968;8.844;2023-07-13T08:45:49;29.20;99.90
20891;DHT22;10605;52.968;8.844;2023-07-13T08:51:04;31.50;94.00
20891;DHT22;10605;52.968;8.844;2023-07-13T08:53:38;32.40;94.90
20891;DHT22;10605;52.968;8.844;2023-07-13T08:56:11;33.30;91.20
20891;DHT22;10605;52.968;8.844;2023-07-13T08:58:40;33.40;86.10
20891;DHT22;10605;52.968;8.844;2023-07-13T09:01:17;34.20;75.50
20891;DHT22;10605;52.968;8.844;2023-07-13T09:07:29;32.30;81.70
20891;DHT22;10605;52.968;8.844;2023-07-13T09:15:45;30.10;83.30
20891;DHT22;10605;52.968;8.844;2023-07-13T09:18:46;32.70;79.10
20891;DHT22;10605;52.968;8.844;2023-07-13T09:21:17;34.30;72.20
20891;DHT22;10605;52.968;8.844;2023-07-13T09:23:43;31.00;76.60
20891;DHT22;10605;52.968;8.844;2023-07-13T09:28:45;34.10;64.30
20891;DHT22;10605;52.968;8.844;2023-07-13T09:33:47;31.00;71.60
20891;DHT22;10605;52.968;8.844;2023-07-13T09:42:18;33.00;72.00
20891;DHT22;10605;52.968;8.844;2023-07-13T09:47:21;34.60;59.20
20891;DHT22;10605;52.968;8.844;2023-07-13T09:50:03;36.30;56.40
20891;DHT22;10605;52.968;8.844;2023-07-13T09:52:42;35.20;55.80
20891;DHT22;10605;52.968;8.844;2023-07-13T09:55:39;35.40;53.90
20891;DHT22;10605;52.968;8.844;2023-07-13T09:58:21;35.10;52.00
20891;DHT22;10605;52.968;8.844;2023-07-13T10:00:56;32.80;55.50
20891;DHT22;10605;52.968;8.844;2023-07-13T10:03:34;32.10;58.00
20891;DHT22;10605;52.968;8.844;2023-07-13T10:06:16;33.20;55.70
20891;DHT22;10605;52.968;8.844;2023-07-13T10:08:45;30.80;58.60
20891;DHT22;10605;52.968;8.844;2023-07-13T10:11:39;31.70;62.90
20891;DHT22;10605;52.968;8.844;2023-07-13T10:14:20;31.70;60.30
20891;DHT22;10605;52.968;8.844;2023-07-13T10:17:01;31.50;57.60
20891;DHT22;10605;52.968;8.844;2023-07-13T10:19:31;29.40;63.60
20891;DHT22;10605;52.968;8.844;2023-07-13T10:22:37;28.00;70.90
20891;DHT22;10605;52.968;8.844;2023-07-13T10:35:12;33.30;52.60
20891;DHT22;10605;52.968;8.844;2023-07-13T10:37:51;31.30;58.70
20891;DHT22;10605;52.968;8.844;2023-07-13T10:40:29;30.20;62.40
20891;DHT22;10605;52.968;8.844;2023-07-13T10:42:59;28.90;64.10
20891;DHT22;10605;52.968;8.844;2023-07-13T10:45:29;27.60;69.50
20891;DHT22;10605;52.968;8.844;2023-07-13T10:47:56;26.90;76.40
20891;DHT22;10605;52.968;8.844;2023-07-13T10:50:24;26.30;78.30
20891;DHT22;10605;52.968;8.844;2023-07-13T10:52:55;26.10;80.00
20891;DHT22;10605;52.968;8.844;2023-07-13T10:55:40;25.20;85.70
20891;DHT22;10605;52.968;8.844;2023-07-13T10:58:35;23.80;97.00
20891;DHT22;10605;52.968;8.844;2023-07-13T11:01:12;22.90;99.90
20891;DHT22;10605;52.968;8.844;2023-07-13T11:03:48;22.00;99.90
20891;DHT22;10605;52.968;8.844;2023-07-13T11:08:57;20.70;99.90
20891;DHT22;10605;52.968;8.844;2023-07-13T11:13:57;19.80;99.90
20891;DHT22;10605;52.968;8.844;2023-07-13T11:18:51;20.30;99.90
20891;DHT22;10605;52.968;8.844;2023-07-13T11:21:23;20.10;99.90
20891;DHT22;10605;52.968;8.844;2023-07-13T11:24:12;19.60;99.90
20891;DHT22;10605;52.968;8.844;2023-07-13T11:31:58;18.90;99.90
20891;DHT22;10605;52.968;8.844;2023-07-13T11:34:30;18.90;99.90
20891;DHT22;10605;52.968;8.844;2023-07-13T11:36:58;18.90;99.90
20891;DHT22;10605;52.968;8.844;2023-07-13T11:39:37;18.80;99.90
20891;DHT22;10605;52.968;8.844;2023-07-13T11:42:10;18.80;99.90
20891;DHT22;10605;52.968;8.844;2023-07-13T11:44:43;18.60;99.90
20891;DHT22;10605;52.968;8.844;2023-07-13T11:47:17;18.70;99.90
20891;DHT22;10605;52.968;8.844;2023-07-13T11:49:48;18.50;99.90
20891;DHT22;10605;52.968;8.844;2023-07-13T11:52:19;18.40;99.90
20891;DHT22;10605;52.968;8.844;2023-07-13T11:54:52;18.20;99.90
20891;DHT22;10605;52.968;8.844;2023-07-13T11:57:27;18.30;99.90
20891;DHT22;10605;52.968;8.844;2023-07-13T11:59:55;18.40;99.90
20891;DHT22;10605;52.968;8.844;2023-07-13T12:04:52;17.70;99.90
20891;DHT22;10605;52.968;8.844;2023-07-13T12:07:19;17.60;99.90
20891;DHT22;10605;52.968;8.844;2023-07-13T12:09:45;17.50;99.90
20891;DHT22;10605;52.968;8.844;2023-07-13T12:12:12;17.50;99.90
20891;DHT22;10605;52.968;8.844;2023-07-13T12:14:39;17.40;99.90
20891;DHT22;10605;52.968;8.844;2023-07-13T12:17:21;17.60;99.90
20891;DHT22;10605;52.968;8.844;2023-07-13T12:19:48;17.80;99.90
20891;DHT22;10605;52.968;8.844;2023-07-13T12:22:16;18.10;99.90
20891;DHT22;10605;52.968;8.844;2023-07-13T12:24:44;18.00;99.90
20891;DHT22;10605;52.968;8.844;2023-07-13T12:27:24;18.00;99.90
20891;DHT22;10605;52.968;8.844;2023-07-13T12:30:03;18.10;99.90
20891;DHT22;10605;52.968;8.844;2023-07-13T12:32:31;18.30;99.90
20891;DHT22;10605;52.968;8.844;2023-07-13T12:35:14;18.30;99.90
20891;DHT22;10605;52.968;8.844;2023-07-13T12:37:44;18.30;99.90
20891;DHT22;10605;52.968;8.844;2023-07-13T12:40:19;18.40;99.90
20891;DHT22;10605;52.968;8.844;2023-07-13T12:42:49;18.50;99.90
20891;DHT22;10605;52.968;8.844;2023-07-13T12:45:20;18.70;99.90
20891;DHT22;10605;52.968;8.844;2023-07-13T12:48:03;18.80;99.90
20891;DHT22;10605;52.968;8.844;2023-07-13T12:50:37;19.10;99.90
20891;DHT22;10605;52.968;8.844;2023-07-13T12:53:05;19.70;99.90
20891;DHT22;10605;52.968;8.844;2023-07-13T12:55:47;20.10;99.90
20891;DHT22;10605;52.968;8.844;2023-07-13T12:58:39;20.50;99.90
20891;DHT22;10605;52.968;8.844;2023-07-13T13:01:08;21.00;99.90
20891;DHT22;10605;52.968;8.844;2023-07-13T13:03:38;21.40;99.90
20891;DHT22;10605;52.968;8.844;2023-07-13T13:06:28;22.10;99.90
20891;DHT22;10605;52.968;8.844;2023-07-13T13:08:59;22.80;99.90
20891;DHT22;10605;52.968;8.844;2023-07-13T13:11:26;27.90;99.90
20891;DHT22;10605;52.968;8.844;2023-07-13T13:13:52;28.50;99.90
20891;DHT22;10605;52.968;8.844;2023-07-13T13:16:31;28.00;99.90
20891;DHT22;10605;52.968;8.844;2023-07-13T13:19:15;28.20;99.90
20891;DHT22;10605;52.968;8.844;2023-07-13T13:21:42;26.20;99.90
20891;DHT22;10605;52.968;8.844;2023-07-13T13:24:16;25.60;99.90
20891;DHT22;10605;52.968;8.844;2023-07-13T13:26:43;25.40;99.90
20891;DHT22;10605;52.968;8.844;2023-07-13T13:29:20;25.50;99.90
20891;DHT22;10605;52.968;8.844;2023-07-13T13:31:46;24.60;99.90
20891;DHT22;10605;52.968;8.844;2023-07-13T13:34:15;23.80;99.90
20891;DHT22;10605;52.968;8.844;2023-07-13T13:36:41;23.50;99.90
20891;DHT22;10605;52.968;8.844;2023-07-13T13:39:27;23.40;99.90
20891;DHT22;10605;52.968;8.844;2023-07-13T13:41:53;23.20;99.90
20891;DHT22;10605;52.968;8.844;2023-07-13T13:44:20;22.90;99.90
20891;DHT22;10605;52.968;8.844;2023-07-13T13:46:48;23.00;99.90
20891;DHT22;10605;52.968;8.844;2023-07-13T13:49:16;23.30;99.90
20891;DHT22;10605;52.968;8.844;2023-07-13T13:51:43;23.90;99.90
20891;DHT22;10605;52.968;8.844;2023-07-13T13:54:11;24.30;99.90
20891;DHT22;10605;52.968;8.844;2023-07-13T13:56:37;24.20;99.90
20891;DHT22;10605;52.968;8.844;2023-07-13T13:59:04;23.80;99.90
20891;DHT22;10605;52.968;8.844;2023-07-13T14:01:31;23.40;99.90
20891;DHT22;10605;52.968;8.844;2023-07-13T14:03:56;23.60;99.90
20891;DHT22;10605;52.968;8.844;2023-07-13T14:06:22;24.20;99.90
20891;DHT22;10605;52.968;8.844;2023-07-13T14:08:48;25.00;99.90
20891;DHT22;10605;52.968;8.844;2023-07-13T14:11:16;25.00;99.90
20891;DHT22;10605;52.968;8.844;2023-07-13T14:13:45;24.70;99.90
20891;DHT22;10605;52.968;8.844;2023-07-13T14:16:16;24.70;99.90
20891;DHT22;10605;52.968;8.844;2023-07-13T14:18:46;24.70;99.90
20891;DHT22;10605;52.968;8.844;2023-07-13T14:21:16;24.60;99.90
20891;DHT22;10605;52.968;8.844;2023-07-13T14:23:44;24.10;99.90
20891;DHT22;10605;52.968;8.844;2023-07-13T14:26:12;24.20;99.90
20891;DHT22;10605;52.968;8.844;2023-07-13T14:28:42;24.80;99.90
20891;DHT22;10605;52.968;8.844;2023-07-13T14:31:09;24.70;99.90
20891;DHT22;10605;52.968;8.844;2023-07-13T14:33:35;24.90;99.90
20891;DHT22;10605;52.968;8.844;2023-07-13T14:36:02;24.40;99.90
20891;DHT22;10605;52.968;8.844;2023-07-13T14:38:28;23.80;99.90
20891;DHT22;10605;52.968;8.844;2023-07-13T14:40:53;23.40;99.90
20891;DHT22;10605;52.968;8.844;2023-07-13T14:43:19;23.20;99.90
20891;DHT22;10605;52.968;8.844;2023-07-13T14:45:49;23.00;99.90
20891;DHT22;10605;52.968;8.844;2023-07-13T14:48:23;22.70;99.90
20891;DHT22;10605;52.968;8.844;2023-07-13T14:50:57;22.20;99.90
20891;DHT22;10605;52.968;8.844;2023-07-13T14:53:25;22.10;99.90
20891;DHT22;10605;52.968;8.844;2023-07-13T14:55:54;21.90;99.90
20891;DHT22;10605;52.968;8.844;2023-07-13T14:58:20;22.00;99.90
20891;DHT22;10605;52.968;8.844;2023-07-13T15:00:46;21.80;99.90
20891;DHT22;10605;52.968;8.844;2023-07-13T15:03:23;21.80;99.90
20891;DHT22;10605;52.968;8.844;2023-07-13T15:05:50;21.70;99.90
20891;DHT22;10605;52.968;8.844;2023-07-13T15:08:16;21.70;99.90
20891;DHT22;10605;52.968;8.844;2023-07-13T15:10:41;21.70;99.90
20891;DHT22;10605;52.968;8.844;2023-07-13T15:13:19;21.70;99.90
20891;DHT22;10605;52.968;8.844;2023-07-13T15:15:50;21.80;99.90
20891;DHT22;10605;52.968;8.844;2023-07-13T15:18:20;21.90;99.90
20891;DHT22;10605;52.968;8.844;2023-07-13T15:20:47;21.90;99.90
20891;DHT22;10605;52.968;8.844;2023-07-13T15:23:16;22.00;99.90
20891;DHT22;10605;52.968;8.844;2023-07-13T15:25:42;22.20;99.90
20891;DHT22;10605;52.968;8.844;2023-07-13T15:28:09;22.30;99.90
20891;DHT22;10605;52.968;8.844;2023-07-13T15:30:44;22.60;99.90
20891;DHT22;10605;52.968;8.844;2023-07-13T15:33:30;22.90;99.90
20891;DHT22;10605;52.968;8.844;2023-07-13T15:35:56;23.30;99.90
20891;DHT22;10605;52.968;8.844;2023-07-13T15:38:32;23.40;99.90
20891;DHT22;10605;52.968;8.844;2023-07-13T15:40:59;23.80;99.90
20891;DHT22;10605;52.968;8.844;2023-07-13T15:43:26;23.60;99.90
20891;DHT22;10605;52.968;8.844;2023-07-13T15:45:52;23.70;99.90
20891;DHT22;10605;52.968;8.844;2023-07-13T15:48:20;23.50;99.90
20891;DHT22;10605;52.968;8.844;2023-07-13T15:50:54;22.10;99.90
20891;DHT22;10605;52.968;8.844;2023-07-13T15:53:25;21.00;99.90
20891;DHT22;10605;52.968;8.844;2023-07-13T15:55:52;20.20;99.90
20891;DHT22;10605;52.968;8.844;2023-07-13T15:58:18;20.10;99.90
20891;DHT22;10605;52.968;8.844;2023-07-13T16:00:45;20.00;99.90
20891;DHT22;10605;52.968;8.844;2023-07-13T16:03:11;19.80;99.90
20891;DHT22;10605;52.968;8.844;2023-07-13T16:05:37;19.60;99.90
20891;DHT22;10605;52.968;8.844;2023-07-13T16:08:04;19.50;99.90
20891;DHT22;10605;52.968;8.844;2023-07-13T16:10:36;19.30;99.90
20891;DHT22;10605;52.968;8.844;2023-07-13T16:13:13;19.20;99.90
20891;DHT22;10605;52.968;8.844;2023-07-13T16:15:39;19.10;99.90
20891;DHT22;10605;52.968;8.844;2023-07-13T16:18:13;18.90;99.90
20891;DHT22;10605;52.968;8.844;2023-07-13T16:20:43;18.70;99.90
20891;DHT22;10605;52.968;8.844;2023-07-13T16:23:11;18.60;99.90
20891;DHT22;10605;52.968;8.844;2023-07-13T16:25:39;18.40;99.90
20891;DHT22;10605;52.968;8.844;2023-07-13T16:28:06;17.70;99.90
20891;DHT22;10605;52.968;8.844;2023-07-13T16:30:32;17.10;99.90